createdAt,value
2019-05-22T00:01:24.764Z,2.20
2019-05-22T00:04:14.952Z,3.10
2019-05-22T00:06:43.883Z,3.10
2019-05-22T00:09:18.975Z,2.87
2019-05-22T00:11:48.563Z,3.00
2019-05-22T00:14:16.241Z,3.00
2019-05-22T00:16:46.369Z,3.33
2019-05-22T00:19:14.637Z,3.40
2019-05-22T00:21:42.379Z,2.80
2019-05-22T00:24:12.084Z,3.50
2019-05-22T00:26:41.319Z,3.13
2019-05-22T00:29:10.032Z,2.93
2019-05-22T00:31:39.688Z,2.97
2019-05-22T00:34:09.663Z,2.57
2019-05-22T00:36:37.452Z,2.77
2019-05-22T00:39:06.307Z,2.57
2019-05-22T00:41:34.695Z,3.10
2019-05-22T00:44:04.627Z,3.33
2019-05-22T00:46:33.573Z,2.10
2019-05-22T00:49:01.909Z,2.77
2019-05-22T00:51:47.625Z,3.50
2019-05-22T00:54:34.630Z,3.30
2019-05-22T00:57:24.623Z,3.50
2019-05-22T00:59:54.900Z,3.07
2019-05-22T01:02:26.354Z,3.27
2019-05-22T01:04:54.269Z,3.70
2019-05-22T01:07:29.717Z,3.47
2019-05-22T01:09:58.100Z,2.77
2019-05-22T01:12:28.821Z,2.70
2019-05-22T01:15:03.398Z,2.30
2019-05-22T01:17:35.976Z,2.53
2019-05-22T01:20:06.226Z,2.40
2019-05-22T01:22:35.742Z,2.53
2019-05-22T01:25:05.396Z,2.47
2019-05-22T01:27:35.538Z,2.33
2019-05-22T01:30:06.639Z,2.17
2019-05-22T01:32:44.875Z,1.80
2019-05-22T01:35:13.560Z,1.80
2019-05-22T01:37:43.929Z,1.70
2019-05-22T01:40:19.739Z,1.60
2019-05-22T01:42:51.471Z,1.90
2019-05-22T01:45:21.392Z,1.83
2019-05-22T01:47:59.410Z,2.00
2019-05-22T01:50:54.938Z,2.00
2019-05-22T01:53:26.780Z,2.07
2019-05-22T01:55:59.062Z,1.63
2019-05-22T01:58:30.084Z,2.07
2019-05-22T02:00:58.421Z,1.60
2019-05-22T02:03:29.223Z,1.70
2019-05-22T02:05:57.529Z,1.87
2019-05-22T02:08:27.579Z,1.77
2019-05-22T02:10:57.501Z,1.80
2019-05-22T02:13:30.431Z,1.67
2019-05-22T02:16:00.074Z,1.80
2019-05-22T02:18:28.902Z,1.73
2019-05-22T02:20:57.364Z,2.10
2019-05-22T02:23:24.778Z,1.70
2019-05-22T02:25:52.215Z,1.53
2019-05-22T02:28:22.287Z,1.70
2019-05-22T02:30:49.703Z,1.80
2019-05-22T02:33:21.236Z,1.60
2019-05-22T02:35:48.784Z,2.17
2019-05-22T02:38:16.316Z,2.10
2019-05-22T02:40:45.388Z,3.37
2019-05-22T02:43:15.344Z,2.67
2019-05-22T02:45:44.215Z,3.50
2019-05-22T02:48:14.056Z,3.53
2019-05-22T02:50:42.142Z,3.47
2019-05-22T02:53:12.552Z,4.90
2019-05-22T02:55:40.635Z,4.17
2019-05-22T02:58:10.484Z,4.93
2019-05-22T03:00:57.686Z,5.63
2019-05-22T03:03:26.315Z,5.87
2019-05-22T03:05:54.569Z,4.80
2019-05-22T03:08:25.076Z,4.60
2019-05-22T03:10:54.786Z,5.53
2019-05-22T03:13:44.557Z,4.67
2019-05-22T03:16:13.487Z,5.10
2019-05-22T03:18:43.834Z,5.17
2019-05-22T03:21:11.739Z,4.27
2019-05-22T03:23:39.869Z,4.57
2019-05-22T03:26:09.845Z,5.17
2019-05-22T03:28:38.672Z,5.40
2019-05-22T03:31:08.370Z,5.30
2019-05-22T03:33:36.230Z,4.70
2019-05-22T03:36:10.018Z,4.50
2019-05-22T03:38:39.831Z,4.97
2019-05-22T03:41:08.849Z,5.20
2019-05-22T03:43:36.348Z,5.67
2019-05-22T03:46:24.736Z,6.30
2019-05-22T03:48:52.974Z,6.87
2019-05-22T03:51:20.635Z,8.20
2019-05-22T03:53:49.489Z,6.87
2019-05-22T03:56:17.675Z,6.80
2019-05-22T03:58:45.491Z,8.30
2019-05-22T04:01:14.195Z,7.07
2019-05-22T04:03:43.782Z,7.30
2019-05-22T04:06:14.051Z,6.50
2019-05-22T04:08:41.630Z,6.20
2019-05-22T04:11:10.928Z,6.00
2019-05-22T04:13:38.508Z,6.87
2019-05-22T04:16:08.946Z,6.10
2019-05-22T04:18:37.982Z,6.33
2019-05-22T04:21:05.707Z,5.57
2019-05-22T04:23:33.505Z,5.37
2019-05-22T04:26:03.376Z,5.03
2019-05-22T04:28:30.936Z,4.97
2019-05-22T04:31:00.233Z,4.00
2019-05-22T04:33:29.175Z,4.00
2019-05-22T04:35:58.937Z,4.30
2019-05-22T04:38:26.695Z,4.30
2019-05-22T04:40:57.486Z,3.50
2019-05-22T04:43:31.994Z,3.27
2019-05-22T04:46:00.391Z,5.43
2019-05-22T04:48:30.936Z,6.27
2019-05-22T04:51:33.411Z,8.60
2019-05-22T04:54:01.078Z,9.03
2019-05-22T04:56:29.299Z,9.80
2019-05-22T04:59:00.266Z,8.97
2019-05-22T05:01:28.125Z,8.00
2019-05-22T05:03:56.903Z,8.83
2019-05-22T05:06:26.219Z,7.53
2019-05-22T05:08:55.934Z,7.97
2019-05-22T05:11:24.114Z,7.87
2019-05-22T05:13:51.673Z,6.97
2019-05-22T05:16:19.537Z,6.77
2019-05-22T05:18:47.318Z,6.80
2019-05-22T05:21:14.910Z,6.17
2019-05-22T05:23:42.500Z,6.27
2019-05-22T05:26:10.031Z,5.37
2019-05-22T05:28:38.153Z,6.10
2019-05-22T05:31:05.615Z,6.27
2019-05-22T05:33:40.531Z,7.30
2019-05-22T05:36:10.370Z,5.97
2019-05-22T05:38:38.968Z,6.23
2019-05-22T05:41:06.754Z,6.87
2019-05-22T05:43:34.903Z,5.83
2019-05-22T05:46:02.447Z,6.83
2019-05-22T05:48:32.375Z,6.70
2019-05-22T05:51:42.465Z,6.53
2019-05-22T05:54:13.555Z,6.57
2019-05-22T05:56:42.820Z,7.73
2019-05-22T05:59:11.831Z,7.20
2019-05-22T06:01:58.279Z,7.10
2019-05-22T06:04:38.616Z,7.80
2019-05-22T06:07:22.770Z,7.73
2019-05-22T06:10:23.456Z,7.57
2019-05-22T06:12:51.387Z,8.03
2019-05-22T06:15:21.161Z,6.90
2019-05-22T06:18:31.333Z,7.30
2019-05-22T06:21:03.923Z,7.20
2019-05-22T06:24:07.589Z,8.03
2019-05-22T06:26:57.151Z,7.30
2019-05-22T06:29:29.320Z,7.13
2019-05-22T06:32:43.071Z,6.00
2019-05-22T06:35:12.149Z,7.27
2019-05-22T06:37:48.893Z,5.40
2019-05-22T06:40:18.027Z,6.73
2019-05-22T06:43:03.027Z,6.33
2019-05-22T06:45:30.491Z,6.77
2019-05-22T06:47:57.960Z,6.20
2019-05-22T06:50:25.681Z,7.07
2019-05-22T06:53:08.965Z,7.80
2019-05-22T06:55:23.124Z,7.13
2019-05-22T06:57:50.684Z,5.93
2019-05-22T07:00:22.299Z,5.57
2019-05-22T07:02:49.879Z,5.67
2019-05-22T07:05:17.789Z,5.40
2019-05-22T07:07:45.937Z,4.80
2019-05-22T07:10:13.993Z,5.10
2019-05-22T07:12:43.507Z,3.87
2019-05-22T07:15:25.103Z,4.00
2019-05-22T07:17:54.376Z,4.10
2019-05-22T07:20:23.575Z,4.50
2019-05-22T07:22:52.532Z,3.70
2019-05-22T07:25:21.802Z,3.53
2019-05-22T07:27:49.545Z,3.50
2019-05-22T07:30:17.315Z,3.83
2019-05-22T07:32:45.430Z,4.03
2019-05-22T07:35:12.995Z,3.70
2019-05-22T07:37:43.568Z,3.77
2019-05-22T07:40:11.843Z,3.00
2019-05-22T07:42:39.376Z,5.67
2019-05-22T07:45:07.431Z,3.23
2019-05-22T07:47:36.306Z,2.63
2019-05-22T07:50:04.193Z,2.77
2019-05-22T07:52:32.020Z,3.20
2019-05-22T07:54:59.588Z,3.73
2019-05-22T07:57:27.162Z,3.30
2019-05-22T07:59:55.108Z,4.83
2019-05-22T08:02:24.655Z,2.30
2019-05-22T08:04:52.838Z,2.77
2019-05-22T08:07:23.505Z,4.87
2019-05-22T08:09:51.329Z,4.20
2019-05-22T08:12:19.883Z,3.00
2019-05-22T08:14:48.825Z,5.23
2019-05-22T08:17:17.273Z,3.23
2019-05-22T08:19:44.740Z,3.67
2019-05-22T08:22:12.782Z,3.37
2019-05-22T08:24:40.783Z,3.23
2019-05-22T08:27:08.790Z,2.93
2019-05-22T08:29:36.881Z,3.00
2019-05-22T08:32:05.296Z,2.40
2019-05-22T08:34:32.998Z,2.20
2019-05-22T08:37:02.700Z,2.13
2019-05-22T08:39:30.362Z,2.40
2019-05-22T08:41:57.998Z,2.50
2019-05-22T08:44:26.914Z,2.40
2019-05-22T08:46:55.551Z,3.87
2019-05-22T08:49:24.301Z,2.37
2019-05-22T08:51:52.089Z,1.90
2019-05-22T08:54:20.250Z,2.60
2019-05-22T08:56:50.863Z,1.97
2019-05-22T08:59:20.314Z,2.13
2019-05-22T09:01:48.810Z,2.27
2019-05-22T09:04:16.295Z,1.73
2019-05-22T09:06:43.863Z,2.00
2019-05-22T09:09:11.458Z,2.10
2019-05-22T09:11:39.008Z,1.40
2019-05-22T09:14:06.470Z,1.87
2019-05-22T09:16:33.997Z,1.90
2019-05-22T09:19:01.931Z,3.20
2019-05-22T09:21:30.124Z,2.43
2019-05-22T09:23:59.385Z,1.40
2019-05-22T09:26:26.933Z,1.50
2019-05-22T09:28:54.487Z,1.70
2019-05-22T09:31:22.069Z,1.00
2019-05-22T09:33:49.763Z,2.90
2019-05-22T09:36:17.690Z,1.17
2019-05-22T09:38:45.571Z,1.20
2019-05-22T09:41:13.017Z,1.23
2019-05-22T09:43:40.562Z,3.37
2019-05-22T09:46:09.393Z,2.10
2019-05-22T09:48:37.807Z,1.10
2019-05-22T09:51:05.703Z,1.30
2019-05-22T09:53:34.345Z,2.00
2019-05-22T09:56:01.835Z,1.30
2019-05-22T09:58:29.542Z,1.50
2019-05-22T10:00:57.076Z,1.00
2019-05-22T10:03:24.839Z,0.87
2019-05-22T10:05:52.453Z,1.03
2019-05-22T10:08:20.473Z,1.47
2019-05-22T10:10:48.339Z,1.23
2019-05-22T10:13:16.116Z,1.53
2019-05-22T10:15:44.495Z,1.30
2019-05-22T10:18:12.238Z,1.17
2019-05-22T10:20:41.307Z,1.30
2019-05-22T10:23:15.676Z,1.63
2019-05-22T10:25:38.708Z,1.17
2019-05-22T10:28:07.374Z,2.03
2019-05-22T10:30:35.582Z,1.37
2019-05-22T10:33:03.482Z,0.80
2019-05-22T10:35:32.912Z,1.10
2019-05-22T10:38:00.856Z,1.10
2019-05-22T10:40:28.506Z,1.10
2019-05-22T10:42:56.849Z,1.00
2019-05-22T10:45:24.655Z,1.20
2019-05-22T10:47:52.574Z,3.57
2019-05-22T10:50:20.950Z,1.10
2019-05-22T10:52:53.961Z,0.93
2019-05-22T10:55:22.184Z,0.90
2019-05-22T10:57:49.831Z,1.33
2019-05-22T11:00:19.496Z,1.83
2019-05-22T11:02:47.350Z,1.20
2019-05-22T11:05:16.108Z,1.00
2019-05-22T11:07:44.167Z,0.50
2019-05-22T11:10:13.237Z,0.70
2019-05-22T11:12:40.823Z,0.70
2019-05-22T11:15:08.739Z,0.70
2019-05-22T11:17:37.293Z,0.70
2019-05-22T11:20:05.960Z,0.63
2019-05-22T11:22:35.171Z,0.63
2019-05-22T11:25:03.969Z,0.60
2019-05-22T11:27:31.609Z,0.73
2019-05-22T11:29:59.060Z,0.67
2019-05-22T11:32:26.617Z,1.80
2019-05-22T11:34:54.046Z,0.90
2019-05-22T11:37:21.787Z,0.50
2019-05-22T11:39:49.718Z,1.40
2019-05-22T11:42:18.186Z,0.70
2019-05-22T11:44:45.768Z,2.90
2019-05-22T11:47:14.611Z,3.50
2019-05-22T11:49:42.429Z,3.43
2019-05-22T11:52:11.768Z,1.53
2019-05-22T11:54:39.451Z,1.67
2019-05-22T11:57:07.477Z,0.60
2019-05-22T11:59:36.310Z,0.70
2019-05-22T12:02:04.982Z,0.97
2019-05-22T12:04:47.366Z,1.90
2019-05-22T12:07:04.927Z,1.37
2019-05-22T12:09:32.858Z,0.80
2019-05-22T12:12:00.846Z,0.77
2019-05-22T12:14:30.022Z,0.60
2019-05-22T12:16:58.695Z,0.80
2019-05-22T12:19:26.693Z,0.47
2019-05-22T12:21:54.830Z,0.70
2019-05-22T12:24:28.458Z,0.80
2019-05-22T12:26:52.478Z,0.80
2019-05-22T12:29:20.256Z,0.60
2019-05-22T12:31:47.853Z,0.87
2019-05-22T12:34:15.384Z,0.60
2019-05-22T12:36:43.429Z,0.63
2019-05-22T12:39:11.893Z,0.60
2019-05-22T12:41:40.191Z,0.60
2019-05-22T12:44:09.392Z,0.70
2019-05-22T12:46:37.967Z,1.13
2019-05-22T12:49:08.960Z,0.80
2019-05-22T12:51:37.471Z,0.70
2019-05-22T12:54:05.001Z,0.57
2019-05-22T12:56:33.566Z,0.60
2019-05-22T12:59:02.410Z,0.73
2019-05-22T13:01:30.876Z,0.70
2019-05-22T13:03:58.668Z,0.70
2019-05-22T13:06:26.644Z,0.60
2019-05-22T13:08:54.108Z,0.80
2019-05-22T13:11:22.018Z,0.40
2019-05-22T13:13:49.930Z,1.50
2019-05-22T13:16:17.406Z,0.60
2019-05-22T13:18:45.367Z,0.60
2019-05-22T13:21:18.279Z,0.53
2019-05-22T13:23:47.422Z,1.93
2019-05-22T13:26:16.528Z,0.70
2019-05-22T13:28:46.969Z,0.50
2019-05-22T13:31:15.324Z,0.57
2019-05-22T13:33:44.150Z,0.80
2019-05-22T13:36:12.429Z,0.90
2019-05-22T13:38:40.272Z,0.57
2019-05-22T13:41:08.267Z,0.50
2019-05-22T13:43:36.449Z,0.60
2019-05-22T13:46:05.011Z,0.60
2019-05-22T13:48:32.958Z,0.70
2019-05-22T13:51:01.426Z,0.50
2019-05-22T13:53:29.423Z,0.60
2019-05-22T13:55:57.995Z,0.83
2019-05-22T13:58:26.640Z,0.40
2019-05-22T14:00:54.865Z,0.40
2019-05-22T14:03:23.423Z,0.70
2019-05-22T14:05:51.814Z,0.47
2019-05-22T14:08:20.179Z,0.53
2019-05-22T14:10:49.915Z,0.67
2019-05-22T14:13:18.320Z,0.60
2019-05-22T14:15:52.568Z,0.73
2019-05-22T14:18:15.470Z,0.90
2019-05-22T14:20:43.025Z,0.90
2019-05-22T14:23:11.072Z,0.70
2019-05-22T14:25:38.734Z,0.83
2019-05-22T14:28:08.172Z,0.50
2019-05-22T14:30:36.484Z,0.70
2019-05-22T14:33:05.502Z,0.70
2019-05-22T14:35:47.538Z,1.07
2019-05-22T14:38:08.545Z,0.57
2019-05-22T14:40:37.609Z,1.53
2019-05-22T14:43:05.368Z,0.60
2019-05-22T14:45:33.505Z,1.40
2019-05-22T14:48:00.932Z,0.63
2019-05-22T14:50:32.820Z,0.70
2019-05-22T14:53:00.258Z,0.80
2019-05-22T14:55:29.148Z,2.53
2019-05-22T14:57:57.102Z,1.17
2019-05-22T15:00:28.983Z,1.00
2019-05-22T15:02:58.751Z,3.80
2019-05-22T15:05:26.447Z,1.30
2019-05-22T15:07:54.018Z,0.77
2019-05-22T15:10:23.750Z,1.10
2019-05-22T15:12:51.373Z,0.73
2019-05-22T15:15:22.344Z,0.93
2019-05-22T15:17:50.157Z,1.10
2019-05-22T15:20:23.126Z,0.80
2019-05-22T15:22:50.849Z,1.00
2019-05-22T15:25:18.918Z,0.90
2019-05-22T15:27:46.543Z,0.80
2019-05-22T15:30:14.779Z,0.70
2019-05-22T15:32:42.955Z,0.90
2019-05-22T15:35:11.854Z,0.87
2019-05-22T15:37:41.559Z,1.10
2019-05-22T15:40:10.287Z,1.00
2019-05-22T15:42:40.068Z,0.97
2019-05-22T15:45:10.210Z,0.70
2019-05-22T15:47:53.503Z,0.50
2019-05-22T15:50:11.399Z,1.10
2019-05-22T15:52:40.873Z,0.73
2019-05-22T15:55:11.618Z,1.53
2019-05-22T15:57:41.036Z,1.30
2019-05-22T16:00:15.389Z,0.93
2019-05-22T16:02:45.806Z,1.40
2019-05-22T16:05:16.454Z,1.50
2019-05-22T16:07:44.459Z,1.70
2019-05-22T16:10:12.845Z,1.20
2019-05-22T16:12:40.813Z,1.53
2019-05-22T16:15:10.355Z,0.83
2019-05-22T16:17:41.655Z,0.60
2019-05-22T16:20:11.651Z,1.10
2019-05-22T16:22:39.147Z,1.17
2019-05-22T16:25:07.387Z,1.20
2019-05-22T16:27:35.547Z,1.30
2019-05-22T16:30:03.752Z,0.93
2019-05-22T16:32:33.811Z,1.87
2019-05-22T16:35:03.650Z,1.57
2019-05-22T16:37:31.735Z,0.93
2019-05-22T16:39:59.424Z,1.10
2019-05-22T16:42:28.016Z,1.43
2019-05-22T16:44:55.853Z,1.90
2019-05-22T16:47:23.736Z,1.40
2019-05-22T16:49:51.497Z,1.83
2019-05-22T16:52:19.466Z,2.30
2019-05-22T16:54:48.126Z,1.70
2019-05-22T16:57:16.944Z,2.03
2019-05-22T16:59:46.692Z,1.63
2019-05-22T17:02:17.360Z,1.60
2019-05-22T17:04:46.130Z,2.23
2019-05-22T17:07:15.137Z,3.50
2019-05-22T17:09:43.132Z,2.73
2019-05-22T17:12:12.605Z,1.30
2019-05-22T17:14:40.759Z,1.23
2019-05-22T17:17:11.318Z,2.50
2019-05-22T17:19:39.250Z,1.90
2019-05-22T17:22:08.163Z,8.80
2019-05-22T17:24:36.600Z,3.33
2019-05-22T17:27:06.484Z,2.70
2019-05-22T17:29:34.732Z,2.80
2019-05-22T17:32:03.679Z,2.50
2019-05-22T17:34:32.529Z,2.27
2019-05-22T17:37:05.970Z,1.73
2019-05-22T17:39:36.271Z,1.40
2019-05-22T17:42:06.338Z,3.67
2019-05-22T17:44:35.793Z,2.23
2019-05-22T17:47:06.286Z,1.77
2019-05-22T17:49:33.639Z,3.10
2019-05-22T17:52:01.707Z,2.50
2019-05-22T17:54:29.411Z,2.50
2019-05-22T17:56:57.372Z,2.33
2019-05-22T17:59:25.368Z,1.70
2019-05-22T18:01:53.343Z,10.67
2019-05-22T18:04:21.497Z,2.10
2019-05-22T18:06:49.039Z,1.87
2019-05-22T18:09:16.767Z,1.37
2019-05-22T18:11:44.649Z,2.10
2019-05-22T18:14:12.509Z,4.77
2019-05-22T18:16:40.566Z,2.43
2019-05-22T18:19:09.527Z,7.30
2019-05-22T18:21:37.969Z,10.40
2019-05-22T18:24:05.636Z,4.73
2019-05-22T18:26:33.380Z,3.87
2019-05-22T18:29:01.165Z,4.90
2019-05-22T18:31:28.827Z,7.00
2019-05-22T18:33:56.323Z,8.80
2019-05-22T18:36:23.999Z,7.80
2019-05-22T18:38:51.569Z,4.97
2019-05-22T18:41:18.987Z,3.40
2019-05-22T18:43:46.485Z,2.83
2019-05-22T18:46:14.047Z,2.40
2019-05-22T18:48:41.906Z,1.60
2019-05-22T18:51:10.475Z,1.50
2019-05-22T18:53:38.533Z,1.10
2019-05-22T18:56:10.748Z,0.90
2019-05-22T18:58:38.451Z,1.00
2019-05-22T19:01:07.016Z,0.93
2019-05-22T19:03:34.810Z,1.23
2019-05-22T19:06:03.513Z,1.17
2019-05-22T19:08:31.567Z,1.20
2019-05-22T19:10:59.034Z,1.10
2019-05-22T19:13:26.536Z,1.30
2019-05-22T19:15:54.475Z,1.13
2019-05-22T19:18:22.151Z,1.40
2019-05-22T19:20:49.811Z,1.70
2019-05-22T19:23:17.469Z,1.50
2019-05-22T19:25:44.864Z,1.23
2019-05-22T19:28:12.379Z,1.93
2019-05-22T19:30:39.830Z,1.20
2019-05-22T19:33:07.620Z,1.40
2019-05-22T19:35:35.276Z,1.83
2019-05-22T19:38:03.404Z,1.43
2019-05-22T19:40:31.424Z,1.40
2019-05-22T19:42:58.884Z,1.50
2019-05-22T19:45:30.600Z,1.33
2019-05-22T19:47:57.233Z,1.60
2019-05-22T19:50:25.096Z,1.97
2019-05-22T19:52:53.919Z,1.87
2019-05-22T19:55:22.720Z,1.60
2019-05-22T19:57:51.053Z,1.30
2019-05-22T20:00:19.255Z,1.70
2019-05-22T20:02:50.575Z,1.83
2019-05-22T20:05:18.226Z,1.40
2019-05-22T20:07:45.656Z,1.50
2019-05-22T20:10:13.792Z,2.30
2019-05-22T20:12:43.199Z,2.27
2019-05-22T20:15:11.768Z,2.20
2019-05-22T20:17:39.543Z,2.00
2019-05-22T20:20:08.049Z,2.17
2019-05-22T20:22:37.913Z,2.13
2019-05-22T20:25:06.484Z,2.47
2019-05-22T20:27:37.674Z,2.13
2019-05-22T20:30:06.245Z,2.40
2019-05-22T20:32:33.824Z,2.10
2019-05-22T20:35:01.387Z,2.77
2019-05-22T20:37:32.359Z,2.57
2019-05-22T20:40:00.475Z,2.87
2019-05-22T20:42:28.634Z,2.77
2019-05-22T20:44:57.232Z,2.33
2019-05-22T20:47:26.443Z,1.87
2019-05-22T20:49:54.796Z,1.63
2019-05-22T20:52:24.354Z,1.97
2019-05-22T20:54:52.141Z,2.20
2019-05-22T20:57:20.825Z,2.40
2019-05-22T20:59:48.920Z,2.33
2019-05-22T21:02:17.059Z,2.57
2019-05-22T21:04:45.747Z,2.87
2019-05-22T21:07:16.705Z,3.10
2019-05-22T21:09:44.877Z,2.90
2019-05-22T21:12:13.510Z,2.60
2019-05-22T21:14:43.132Z,2.43
2019-05-22T21:17:11.380Z,2.87
2019-05-22T21:19:40.936Z,2.80
2019-05-22T21:22:09.489Z,3.10
2019-05-22T21:24:37.378Z,3.20
2019-05-22T21:27:06.943Z,3.13
2019-05-22T21:29:35.283Z,3.20
2019-05-22T21:32:03.555Z,4.17
2019-05-22T21:34:30.957Z,3.40
2019-05-22T21:36:58.927Z,4.17
2019-05-22T21:39:27.123Z,3.60
2019-05-22T21:41:54.710Z,4.10
2019-05-22T21:44:22.319Z,3.57
2019-05-22T21:46:51.310Z,3.97
2019-05-22T21:49:19.260Z,3.63
2019-05-22T21:51:46.787Z,2.93
2019-05-22T21:54:15.794Z,3.10
2019-05-22T21:56:44.063Z,4.20
2019-05-22T21:59:11.595Z,5.07
2019-05-22T22:01:47.784Z,5.27
2019-05-22T22:04:25.816Z,3.90
2019-05-22T22:06:54.779Z,3.40
2019-05-22T22:09:24.173Z,4.23
2019-05-22T22:11:52.392Z,4.63
2019-05-22T22:14:21.740Z,3.23
2019-05-22T22:16:49.910Z,4.30
2019-05-22T22:19:19.561Z,4.57
2019-05-22T22:21:48.040Z,4.13
2019-05-22T22:24:15.816Z,4.60
2019-05-22T22:26:43.961Z,4.27
2019-05-22T22:29:12.038Z,3.73
2019-05-22T22:31:40.411Z,3.87
2019-05-22T22:34:34.837Z,4.53
2019-05-22T22:37:03.669Z,3.40
2019-05-22T22:39:32.015Z,3.70
2019-05-22T22:42:00.377Z,4.17
2019-05-22T22:44:30.297Z,3.40
2019-05-22T22:47:05.174Z,3.20
2019-05-22T22:49:34.510Z,3.23
2019-05-22T22:52:05.593Z,2.97
2019-05-22T22:54:34.080Z,2.90
2019-05-22T22:57:02.050Z,3.67
2019-05-22T22:59:29.934Z,3.87
2019-05-22T23:02:00.002Z,3.70
2019-05-22T23:04:29.223Z,3.60
2019-05-22T23:07:05.256Z,4.00
2019-05-22T23:09:35.072Z,3.80
2019-05-22T23:12:03.856Z,4.00
2019-05-22T23:14:33.273Z,3.77
2019-05-22T23:17:00.899Z,3.60
2019-05-22T23:19:44.033Z,3.20
2019-05-22T23:22:15.622Z,4.33
2019-05-22T23:24:45.536Z,4.33
2019-05-22T23:27:15.313Z,4.27
2019-05-22T23:29:44.712Z,4.33
2019-05-22T23:32:14.985Z,3.87
2019-05-22T23:34:44.205Z,4.67
2019-05-22T23:37:12.542Z,4.60
2019-05-22T23:39:40.708Z,4.47
2019-05-22T23:42:13.722Z,5.47
2019-05-22T23:44:42.112Z,6.03
2019-05-22T23:47:10.491Z,5.10
2019-05-22T23:49:38.905Z,7.03
2019-05-22T23:52:07.140Z,6.90
2019-05-22T23:54:36.749Z,6.53
2019-05-22T23:57:05.441Z,6.87
2019-05-22T23:59:35.544Z,7.33
